Tunuyan, Argentina
Current Conditions -  °F | °C
As of 5:00 PM on Wednesday 28 Jan 2015 (Local Time) from SAME Reporting Station
Scattered Clouds Scattered Clouds  
Wind Chill: 29°   Ceiling: Unl
Heat Index: 29°   Visibility: 6mi
Dew Point: 10°   Wind: 8mph
Humidity: 30%   Direction: 90°E
Pressure: 29.85"   Gusts: NA
Location:  33.57°S, 69.02°W
Report Text: SAME 282000Z 09007KT 9999 SCT040 29/10 Q1011
Loading
Personal Weather Stations






























Interactive Weather Map New forecast layout! Learn more

10-Day Weather Forecast

Advertisements
Track Severe Weather on mobile